sensor_id;sensor_type;location;lat;lon;timestamp;P1;durP1;ratioP1;P2;durP2;ratioP2
17596;SDS011;8917;50.942;6.946;2023-05-23T00:01:00;7.50;;;6.30;;
17596;SDS011;8917;50.942;6.946;2023-05-23T00:03:27;8.45;;;6.60;;
17596;SDS011;8917;50.942;6.946;2023-05-23T00:05:56;7.43;;;6.00;;
17596;SDS011;8917;50.942;6.946;2023-05-23T00:08:24;7.90;;;5.90;;
17596;SDS011;8917;50.942;6.946;2023-05-23T00:10:51;10.30;;;6.60;;
17596;SDS011;8917;50.942;6.946;2023-05-23T00:13:18;7.50;;;6.30;;
17596;SDS011;8917;50.942;6.946;2023-05-23T00:15:45;6.77;;;6.03;;
17596;SDS011;8917;50.942;6.946;2023-05-23T00:18:13;7.63;;;6.83;;
17596;SDS011;8917;50.942;6.946;2023-05-23T00:20:40;8.93;;;6.83;;
17596;SDS011;8917;50.942;6.946;2023-05-23T00:23:10;8.03;;;6.20;;
17596;SDS011;8917;50.942;6.946;2023-05-23T00:25:42;7.13;;;5.80;;
17596;SDS011;8917;50.942;6.946;2023-05-23T00:28:12;6.70;;;6.00;;
17596;SDS011;8917;50.942;6.946;2023-05-23T00:30:41;7.23;;;6.33;;
17596;SDS011;8917;50.942;6.946;2023-05-23T00:33:08;9.03;;;7.40;;
17596;SDS011;8917;50.942;6.946;2023-05-23T00:35:38;7.97;;;7.17;;
17596;SDS011;8917;50.942;6.946;2023-05-23T00:38:05;7.97;;;7.17;;
17596;SDS011;8917;50.942;6.946;2023-05-23T00:40:34;8.00;;;7.20;;
17596;SDS011;8917;50.942;6.946;2023-05-23T00:43:01;9.93;;;7.30;;
17596;SDS011;8917;50.942;6.946;2023-05-23T00:45:28;8.43;;;7.07;;
17596;SDS011;8917;50.942;6.946;2023-05-23T00:47:55;9.17;;;7.53;;
17596;SDS011;8917;50.942;6.946;2023-05-23T00:50:24;9.07;;;7.83;;
17596;SDS011;8917;50.942;6.946;2023-05-23T00:52:53;8.13;;;7.37;;
17596;SDS011;8917;50.942;6.946;2023-05-23T00:55:20;8.67;;;7.77;;
17596;SDS011;8917;50.942;6.946;2023-05-23T00:57:50;9.07;;;7.80;;
17596;SDS011;8917;50.942;6.946;2023-05-23T01:00:18;10.80;;;8.93;;
17596;SDS011;8917;50.942;6.946;2023-05-23T01:02:46;8.37;;;7.53;;
17596;SDS011;8917;50.942;6.946;2023-05-23T01:05:15;8.35;;;7.50;;
17596;SDS011;8917;50.942;6.946;2023-05-23T01:07:42;8.43;;;7.33;;
17596;SDS011;8917;50.942;6.946;2023-05-23T01:10:10;7.87;;;7.07;;
17596;SDS011;8917;50.942;6.946;2023-05-23T01:12:40;11.00;;;7.65;;
17596;SDS011;8917;50.942;6.946;2023-05-23T01:15:12;9.30;;;7.07;;
17596;SDS011;8917;50.942;6.946;2023-05-23T01:17:43;7.32;;;6.57;;
17596;SDS011;8917;50.942;6.946;2023-05-23T01:20:12;7.60;;;6.80;;
17596;SDS011;8917;50.942;6.946;2023-05-23T01:22:48;7.47;;;6.37;;
17596;SDS011;8917;50.942;6.946;2023-05-23T01:25:22;11.48;;;6.60;;
17596;SDS011;8917;50.942;6.946;2023-05-23T01:27:54;6.75;;;6.13;;
17596;SDS011;8917;50.942;6.946;2023-05-23T01:30:22;8.20;;;6.53;;
17596;SDS011;8917;50.942;6.946;2023-05-23T01:32:52;9.63;;;6.73;;
17596;SDS011;8917;50.942;6.946;2023-05-23T01:35:21;8.10;;;6.67;;
17596;SDS011;8917;50.942;6.946;2023-05-23T01:37:49;7.33;;;6.53;;
17596;SDS011;8917;50.942;6.946;2023-05-23T01:40:16;7.93;;;6.77;;
17596;SDS011;8917;50.942;6.946;2023-05-23T01:42:44;7.93;;;6.63;;
17596;SDS011;8917;50.942;6.946;2023-05-23T01:45:12;8.60;;;7.20;;
17596;SDS011;8917;50.942;6.946;2023-05-23T01:47:40;8.57;;;7.10;;
17596;SDS011;8917;50.942;6.946;2023-05-23T01:50:07;8.03;;;7.23;;
17596;SDS011;8917;50.942;6.946;2023-05-23T01:52:35;7.47;;;6.63;;
17596;SDS011;8917;50.942;6.946;2023-05-23T01:55:04;7.50;;;6.00;;
17596;SDS011;8917;50.942;6.946;2023-05-23T01:57:34;7.03;;;5.23;;
17596;SDS011;8917;50.942;6.946;2023-05-23T02:00:02;5.97;;;5.33;;
17596;SDS011;8917;50.942;6.946;2023-05-23T02:02:32;6.60;;;5.80;;
17596;SDS011;8917;50.942;6.946;2023-05-23T02:04:59;5.33;;;4.80;;
17596;SDS011;8917;50.942;6.946;2023-05-23T02:07:26;6.00;;;4.83;;
17596;SDS011;8917;50.942;6.946;2023-05-23T02:09:54;4.60;;;4.13;;
17596;SDS011;8917;50.942;6.946;2023-05-23T02:12:21;5.00;;;4.50;;
17596;SDS011;8917;50.942;6.946;2023-05-23T02:14:48;4.10;;;3.70;;
17596;SDS011;8917;50.942;6.946;2023-05-23T02:17:16;4.53;;;4.13;;
17596;SDS011;8917;50.942;6.946;2023-05-23T02:19:47;4.00;;;3.63;;
17596;SDS011;8917;50.942;6.946;2023-05-23T02:22:14;4.23;;;3.77;;
17596;SDS011;8917;50.942;6.946;2023-05-23T02:24:42;3.87;;;3.50;;
17596;SDS011;8917;50.942;6.946;2023-05-23T02:27:09;4.33;;;3.90;;
17596;SDS011;8917;50.942;6.946;2023-05-23T02:29:36;4.23;;;3.83;;
17596;SDS011;8917;50.942;6.946;2023-05-23T02:32:03;3.87;;;3.30;;
17596;SDS011;8917;50.942;6.946;2023-05-23T02:34:31;3.40;;;3.10;;
17596;SDS011;8917;50.942;6.946;2023-05-23T02:36:59;5.30;;;3.60;;
17596;SDS011;8917;50.942;6.946;2023-05-23T02:39:26;4.10;;;3.03;;
17596;SDS011;8917;50.942;6.946;2023-05-23T02:41:54;4.90;;;3.67;;
17596;SDS011;8917;50.942;6.946;2023-05-23T02:44:21;4.00;;;3.60;;
17596;SDS011;8917;50.942;6.946;2023-05-23T02:46:48;4.40;;;4.00;;
17596;SDS011;8917;50.942;6.946;2023-05-23T02:49:15;4.20;;;3.80;;
17596;SDS011;8917;50.942;6.946;2023-05-23T02:51:42;5.78;;;3.40;;
17596;SDS011;8917;50.942;6.946;2023-05-23T02:54:11;4.20;;;3.70;;
17596;SDS011;8917;50.942;6.946;2023-05-23T02:56:38;4.83;;;3.47;;
17596;SDS011;8917;50.942;6.946;2023-05-23T02:59:05;5.13;;;3.73;;
17596;SDS011;8917;50.942;6.946;2023-05-23T03:01:32;4.27;;;3.53;;
17596;SDS011;8917;50.942;6.946;2023-05-23T03:04:00;3.70;;;3.40;;
17596;SDS011;8917;50.942;6.946;2023-05-23T03:06:27;4.27;;;3.83;;
17596;SDS011;8917;50.942;6.946;2023-05-23T03:08:56;5.17;;;4.10;;
17596;SDS011;8917;50.942;6.946;2023-05-23T03:11:24;5.00;;;4.50;;
17596;SDS011;8917;50.942;6.946;2023-05-23T03:13:52;5.10;;;4.60;;
17596;SDS011;8917;50.942;6.946;2023-05-23T03:16:19;5.50;;;5.00;;
17596;SDS011;8917;50.942;6.946;2023-05-23T03:18:47;5.33;;;4.37;;
17596;SDS011;8917;50.942;6.946;2023-05-23T03:21:14;5.25;;;4.45;;
17596;SDS011;8917;50.942;6.946;2023-05-23T03:23:42;5.30;;;4.77;;
17596;SDS011;8917;50.942;6.946;2023-05-23T03:26:09;6.23;;;5.00;;
17596;SDS011;8917;50.942;6.946;2023-05-23T03:28:38;5.30;;;4.57;;
17596;SDS011;8917;50.942;6.946;2023-05-23T03:31:05;5.50;;;5.00;;
17596;SDS011;8917;50.942;6.946;2023-05-23T03:33:32;6.13;;;5.13;;
17596;SDS011;8917;50.942;6.946;2023-05-23T03:35:59;6.83;;;5.20;;
17596;SDS011;8917;50.942;6.946;2023-05-23T03:38:26;7.33;;;5.57;;
17596;SDS011;8917;50.942;6.946;2023-05-23T03:40:56;9.60;;;5.53;;
17596;SDS011;8917;50.942;6.946;2023-05-23T03:43:23;6.30;;;5.57;;
17596;SDS011;8917;50.942;6.946;2023-05-23T03:45:52;7.03;;;5.33;;
17596;SDS011;8917;50.942;6.946;2023-05-23T03:48:19;7.53;;;5.53;;
17596;SDS011;8917;50.942;6.946;2023-05-23T03:50:46;6.97;;;5.10;;
17596;SDS011;8917;50.942;6.946;2023-05-23T03:53:14;7.67;;;5.60;;
17596;SDS011;8917;50.942;6.946;2023-05-23T03:55:41;6.27;;;5.63;;
17596;SDS011;8917;50.942;6.946;2023-05-23T03:58:08;7.70;;;5.37;;
17596;SDS011;8917;50.942;6.946;2023-05-23T04:00:36;6.93;;;5.00;;
17596;SDS011;8917;50.942;6.946;2023-05-23T04:03:04;7.20;;;5.90;;
17596;SDS011;8917;50.942;6.946;2023-05-23T04:05:32;8.13;;;5.97;;
17596;SDS011;8917;50.942;6.946;2023-05-23T04:07:59;6.10;;;5.17;;
17596;SDS011;8917;50.942;6.946;2023-05-23T04:10:26;6.37;;;5.53;;
17596;SDS011;8917;50.942;6.946;2023-05-23T04:12:54;5.27;;;4.73;;
17596;SDS011;8917;50.942;6.946;2023-05-23T04:15:21;7.33;;;4.90;;
17596;SDS011;8917;50.942;6.946;2023-05-23T04:17:48;7.03;;;5.50;;
17596;SDS011;8917;50.942;6.946;2023-05-23T04:20:17;6.87;;;5.23;;
17596;SDS011;8917;50.942;6.946;2023-05-23T04:22:45;7.73;;;5.17;;
17596;SDS011;8917;50.942;6.946;2023-05-23T04:25:12;5.20;;;4.50;;
17596;SDS011;8917;50.942;6.946;2023-05-23T04:27:42;6.60;;;4.73;;
17596;SDS011;8917;50.942;6.946;2023-05-23T04:30:09;5.27;;;4.70;;
17596;SDS011;8917;50.942;6.946;2023-05-23T04:32:36;5.67;;;4.70;;
17596;SDS011;8917;50.942;6.946;2023-05-23T04:35:04;6.27;;;4.90;;
17596;SDS011;8917;50.942;6.946;2023-05-23T04:37:33;5.50;;;4.10;;
17596;SDS011;8917;50.942;6.946;2023-05-23T04:40:01;4.83;;;4.20;;
17596;SDS011;8917;50.942;6.946;2023-05-23T04:42:29;6.13;;;4.63;;
17596;SDS011;8917;50.942;6.946;2023-05-23T04:44:57;11.27;;;5.17;;
17596;SDS011;8917;50.942;6.946;2023-05-23T04:47:26;6.37;;;4.30;;
17596;SDS011;8917;50.942;6.946;2023-05-23T04:49:58;5.80;;;4.83;;
17596;SDS011;8917;50.942;6.946;2023-05-23T04:52:26;6.63;;;4.70;;
17596;SDS011;8917;50.942;6.946;2023-05-23T04:54:56;5.57;;;4.50;;
17596;SDS011;8917;50.942;6.946;2023-05-23T04:57:24;6.50;;;4.53;;
17596;SDS011;8917;50.942;6.946;2023-05-23T04:59:51;6.33;;;4.77;;
17596;SDS011;8917;50.942;6.946;2023-05-23T05:02:18;7.73;;;5.70;;
17596;SDS011;8917;50.942;6.946;2023-05-23T05:04:45;8.27;;;5.50;;
17596;SDS011;8917;50.942;6.946;2023-05-23T05:07:13;9.17;;;4.97;;
17596;SDS011;8917;50.942;6.946;2023-05-23T05:09:40;6.53;;;5.00;;
17596;SDS011;8917;50.942;6.946;2023-05-23T05:12:09;12.07;;;5.47;;
17596;SDS011;8917;50.942;6.946;2023-05-23T05:14:36;10.03;;;5.50;;
17596;SDS011;8917;50.942;6.946;2023-05-23T05:17:03;5.93;;;4.70;;
17596;SDS011;8917;50.942;6.946;2023-05-23T05:19:30;8.23;;;5.03;;
17596;SDS011;8917;50.942;6.946;2023-05-23T05:21:58;6.27;;;4.80;;
17596;SDS011;8917;50.942;6.946;2023-05-23T05:24:25;9.33;;;5.60;;
17596;SDS011;8917;50.942;6.946;2023-05-23T05:26:53;8.03;;;5.60;;
17596;SDS011;8917;50.942;6.946;2023-05-23T05:29:22;6.27;;;5.40;;
17596;SDS011;8917;50.942;6.946;2023-05-23T05:31:49;9.30;;;5.07;;
17596;SDS011;8917;50.942;6.946;2023-05-23T05:34:17;6.23;;;4.83;;
17596;SDS011;8917;50.942;6.946;2023-05-23T05:36:44;9.10;;;5.43;;
17596;SDS011;8917;50.942;6.946;2023-05-23T05:39:12;12.30;;;4.80;;
17596;SDS011;8917;50.942;6.946;2023-05-23T05:41:39;7.30;;;4.70;;
17596;SDS011;8917;50.942;6.946;2023-05-23T05:44:07;7.17;;;4.90;;
17596;SDS011;8917;50.942;6.946;2023-05-23T05:46:35;9.30;;;4.80;;
17596;SDS011;8917;50.942;6.946;2023-05-23T05:49:03;9.13;;;5.30;;
17596;SDS011;8917;50.942;6.946;2023-05-23T05:51:30;7.30;;;4.80;;
17596;SDS011;8917;50.942;6.946;2023-05-23T05:53:57;7.40;;;5.27;;
17596;SDS011;8917;50.942;6.946;2023-05-23T05:56:24;12.83;;;8.50;;
17596;SDS011;8917;50.942;6.946;2023-05-23T05:58:52;8.30;;;5.60;;
17596;SDS011;8917;50.942;6.946;2023-05-23T06:01:19;10.67;;;5.53;;
17596;SDS011;8917;50.942;6.946;2023-05-23T06:03:47;9.70;;;5.53;;
17596;SDS011;8917;50.942;6.946;2023-05-23T06:06:15;9.70;;;6.17;;
17596;SDS011;8917;50.942;6.946;2023-05-23T06:08:42;7.83;;;5.93;;
17596;SDS011;8917;50.942;6.946;2023-05-23T06:11:09;9.47;;;5.77;;
17596;SDS011;8917;50.942;6.946;2023-05-23T06:13:36;7.60;;;5.57;;
17596;SDS011;8917;50.942;6.946;2023-05-23T06:16:04;6.07;;;5.47;;
17596;SDS011;8917;50.942;6.946;2023-05-23T06:18:31;9.10;;;5.67;;
17596;SDS011;8917;50.942;6.946;2023-05-23T06:21:00;15.00;;;11.67;;
17596;SDS011;8917;50.942;6.946;2023-05-23T06:23:27;8.43;;;5.67;;
17596;SDS011;8917;50.942;6.946;2023-05-23T06:25:54;10.53;;;7.13;;
17596;SDS011;8917;50.942;6.946;2023-05-23T06:28:22;9.57;;;6.43;;
17596;SDS011;8917;50.942;6.946;2023-05-23T06:30:53;6.77;;;6.00;;
17596;SDS011;8917;50.942;6.946;2023-05-23T06:33:20;11.20;;;6.30;;
17596;SDS011;8917;50.942;6.946;2023-05-23T06:35:47;8.40;;;6.53;;
17596;SDS011;8917;50.942;6.946;2023-05-23T06:38:16;10.27;;;7.17;;
17596;SDS011;8917;50.942;6.946;2023-05-23T06:40:43;9.87;;;6.23;;
17596;SDS011;8917;50.942;6.946;2023-05-23T06:43:10;12.63;;;7.07;;
17596;SDS011;8917;50.942;6.946;2023-05-23T06:45:37;12.23;;;8.20;;
17596;SDS011;8917;50.942;6.946;2023-05-23T06:48:04;11.03;;;6.27;;
17596;SDS011;8917;50.942;6.946;2023-05-23T06:50:32;7.60;;;6.10;;
17596;SDS011;8917;50.942;6.946;2023-05-23T06:52:59;10.33;;;7.03;;
17596;SDS011;8917;50.942;6.946;2023-05-23T06:55:28;9.43;;;6.00;;
17596;SDS011;8917;50.942;6.946;2023-05-23T06:57:58;9.00;;;7.40;;
17596;SDS011;8917;50.942;6.946;2023-05-23T07:00:27;10.30;;;7.17;;
17596;SDS011;8917;50.942;6.946;2023-05-23T07:02:55;9.97;;;6.30;;
17596;SDS011;8917;50.942;6.946;2023-05-23T07:05:25;6.70;;;5.53;;
17596;SDS011;8917;50.942;6.946;2023-05-23T07:07:52;9.63;;;6.10;;
17596;SDS011;8917;50.942;6.946;2023-05-23T07:10:20;8.73;;;5.83;;
17596;SDS011;8917;50.942;6.946;2023-05-23T07:12:48;8.90;;;5.80;;
17596;SDS011;8917;50.942;6.946;2023-05-23T07:15:16;9.97;;;6.90;;
17596;SDS011;8917;50.942;6.946;2023-05-23T07:17:44;7.57;;;6.23;;
17596;SDS011;8917;50.942;6.946;2023-05-23T07:20:11;6.50;;;5.57;;
17596;SDS011;8917;50.942;6.946;2023-05-23T07:22:38;11.70;;;6.20;;
17596;SDS011;8917;50.942;6.946;2023-05-23T07:25:06;12.53;;;6.10;;
17596;SDS011;8917;50.942;6.946;2023-05-23T07:27:34;7.83;;;6.07;;
17596;SDS011;8917;50.942;6.946;2023-05-23T07:30:03;11.33;;;7.00;;
17596;SDS011;8917;50.942;6.946;2023-05-23T07:32:31;9.80;;;6.73;;
17596;SDS011;8917;50.942;6.946;2023-05-23T07:34:59;12.77;;;6.27;;
17596;SDS011;8917;50.942;6.946;2023-05-23T07:37:26;20.53;;;8.13;;
17596;SDS011;8917;50.942;6.946;2023-05-23T07:39:53;7.70;;;5.47;;
17596;SDS011;8917;50.942;6.946;2023-05-23T07:42:20;12.23;;;6.43;;
17596;SDS011;8917;50.942;6.946;2023-05-23T07:44:47;12.37;;;5.90;;
17596;SDS011;8917;50.942;6.946;2023-05-23T07:47:19;10.13;;;5.67;;
17596;SDS011;8917;50.942;6.946;2023-05-23T07:49:48;8.57;;;6.43;;
17596;SDS011;8917;50.942;6.946;2023-05-23T07:52:16;9.43;;;5.10;;
17596;SDS011;8917;50.942;6.946;2023-05-23T07:54:43;9.60;;;5.90;;
17596;SDS011;8917;50.942;6.946;2023-05-23T07:57:10;9.50;;;7.47;;
17596;SDS011;8917;50.942;6.946;2023-05-23T07:59:39;8.80;;;6.60;;
17596;SDS011;8917;50.942;6.946;2023-05-23T08:02:06;7.10;;;5.80;;
17596;SDS011;8917;50.942;6.946;2023-05-23T08:04:35;9.33;;;5.80;;
17596;SDS011;8917;50.942;6.946;2023-05-23T08:07:04;6.67;;;5.43;;
17596;SDS011;8917;50.942;6.946;2023-05-23T08:09:32;9.20;;;6.13;;
17596;SDS011;8917;50.942;6.946;2023-05-23T08:11:59;7.77;;;6.27;;
17596;SDS011;8917;50.942;6.946;2023-05-23T08:14:27;7.17;;;5.77;;
17596;SDS011;8917;50.942;6.946;2023-05-23T08:16:54;9.00;;;5.90;;
17596;SDS011;8917;50.942;6.946;2023-05-23T08:19:21;8.33;;;5.27;;
17596;SDS011;8917;50.942;6.946;2023-05-23T08:21:50;9.67;;;5.57;;
17596;SDS011;8917;50.942;6.946;2023-05-23T08:24:17;9.37;;;5.63;;
17596;SDS011;8917;50.942;6.946;2023-05-23T08:26:45;8.33;;;5.27;;
17596;SDS011;8917;50.942;6.946;2023-05-23T08:29:12;8.37;;;5.43;;
17596;SDS011;8917;50.942;6.946;2023-05-23T08:31:39;8.47;;;6.20;;
17596;SDS011;8917;50.942;6.946;2023-05-23T08:34:06;7.73;;;5.30;;
17596;SDS011;8917;50.942;6.946;2023-05-23T08:36:33;10.53;;;6.20;;
17596;SDS011;8917;50.942;6.946;2023-05-23T08:39:05;9.20;;;6.03;;
17596;SDS011;8917;50.942;6.946;2023-05-23T08:41:32;8.43;;;5.80;;
17596;SDS011;8917;50.942;6.946;2023-05-23T08:44:00;7.67;;;5.60;;
17596;SDS011;8917;50.942;6.946;2023-05-23T08:46:27;13.90;;;6.40;;
17596;SDS011;8917;50.942;6.946;2023-05-23T08:48:55;9.30;;;6.43;;
17596;SDS011;8917;50.942;6.946;2023-05-23T08:51:25;7.50;;;5.90;;
17596;SDS011;8917;50.942;6.946;2023-05-23T08:53:53;10.40;;;7.17;;
17596;SDS011;8917;50.942;6.946;2023-05-23T08:56:23;9.10;;;6.10;;
17596;SDS011;8917;50.942;6.946;2023-05-23T08:58:52;9.67;;;6.50;;
17596;SDS011;8917;50.942;6.946;2023-05-23T09:01:19;12.63;;;6.40;;
17596;SDS011;8917;50.942;6.946;2023-05-23T09:03:47;10.40;;;6.83;;
17596;SDS011;8917;50.942;6.946;2023-05-23T09:06:15;11.67;;;6.90;;
17596;SDS011;8917;50.942;6.946;2023-05-23T09:08:43;10.30;;;6.80;;
17596;SDS011;8917;50.942;6.946;2023-05-23T09:11:10;12.23;;;6.90;;
17596;SDS011;8917;50.942;6.946;2023-05-23T09:13:40;14.53;;;7.70;;
17596;SDS011;8917;50.942;6.946;2023-05-23T09:16:08;11.67;;;7.60;;
17596;SDS011;8917;50.942;6.946;2023-05-23T09:18:37;12.87;;;6.53;;
17596;SDS011;8917;50.942;6.946;2023-05-23T09:21:05;13.80;;;7.70;;
17596;SDS011;8917;50.942;6.946;2023-05-23T09:23:34;12.37;;;7.00;;
17596;SDS011;8917;50.942;6.946;2023-05-23T09:26:01;13.43;;;8.00;;
17596;SDS011;8917;50.942;6.946;2023-05-23T09:28:29;18.53;;;7.53;;
17596;SDS011;8917;50.942;6.946;2023-05-23T09:30:58;14.60;;;8.40;;
17596;SDS011;8917;50.942;6.946;2023-05-23T09:33:33;12.27;;;8.13;;
17596;SDS011;8917;50.942;6.946;2023-05-23T09:36:02;12.40;;;6.90;;
17596;SDS011;8917;50.942;6.946;2023-05-23T09:38:29;11.33;;;6.27;;
17596;SDS011;8917;50.942;6.946;2023-05-23T09:40:57;11.00;;;7.20;;
17596;SDS011;8917;50.942;6.946;2023-05-23T09:43:24;12.77;;;7.30;;
17596;SDS011;8917;50.942;6.946;2023-05-23T09:45:52;12.13;;;6.30;;
17596;SDS011;8917;50.942;6.946;2023-05-23T09:48:28;9.03;;;6.17;;
17596;SDS011;8917;50.942;6.946;2023-05-23T09:50:56;10.93;;;6.77;;
17596;SDS011;8917;50.942;6.946;2023-05-23T09:53:23;15.93;;;6.40;;
17596;SDS011;8917;50.942;6.946;2023-05-23T09:55:51;13.73;;;6.73;;
17596;SDS011;8917;50.942;6.946;2023-05-23T09:58:20;13.20;;;7.83;;
17596;SDS011;8917;50.942;6.946;2023-05-23T10:00:49;12.93;;;7.07;;
17596;SDS011;8917;50.942;6.946;2023-05-23T10:03:18;14.27;;;7.83;;
17596;SDS011;8917;50.942;6.946;2023-05-23T10:05:49;13.83;;;9.67;;
17596;SDS011;8917;50.942;6.946;2023-05-23T10:08:19;13.13;;;8.23;;
17596;SDS011;8917;50.942;6.946;2023-05-23T10:11:05;14.27;;;9.90;;
17596;SDS011;8917;50.942;6.946;2023-05-23T10:13:48;13.23;;;10.03;;
17596;SDS011;8917;50.942;6.946;2023-05-23T10:16:17;13.93;;;8.93;;
17596;SDS011;8917;50.942;6.946;2023-05-23T10:18:47;11.03;;;7.90;;
17596;SDS011;8917;50.942;6.946;2023-05-23T10:21:17;14.23;;;6.10;;
17596;SDS011;8917;50.942;6.946;2023-05-23T10:23:46;13.03;;;6.00;;
17596;SDS011;8917;50.942;6.946;2023-05-23T10:26:13;10.60;;;6.23;;
17596;SDS011;8917;50.942;6.946;2023-05-23T10:28:41;16.73;;;6.70;;
17596;SDS011;8917;50.942;6.946;2023-05-23T10:31:08;12.63;;;6.57;;
17596;SDS011;8917;50.942;6.946;2023-05-23T10:33:39;9.53;;;6.00;;
17596;SDS011;8917;50.942;6.946;2023-05-23T10:36:09;9.80;;;5.70;;
17596;SDS011;8917;50.942;6.946;2023-05-23T10:38:41;7.30;;;5.57;;
17596;SDS011;8917;50.942;6.946;2023-05-23T10:41:12;9.83;;;5.07;;
17596;SDS011;8917;50.942;6.946;2023-05-23T10:43:44;8.40;;;5.40;;
17596;SDS011;8917;50.942;6.946;2023-05-23T10:46:13;17.67;;;13.63;;
17596;SDS011;8917;50.942;6.946;2023-05-23T10:48:40;9.83;;;4.67;;
17596;SDS011;8917;50.942;6.946;2023-05-23T10:51:08;8.57;;;5.13;;
17596;SDS011;8917;50.942;6.946;2023-05-23T10:53:36;8.80;;;5.73;;
17596;SDS011;8917;50.942;6.946;2023-05-23T10:56:05;8.67;;;5.47;;
17596;SDS011;8917;50.942;6.946;2023-05-23T10:58:33;7.50;;;4.97;;
17596;SDS011;8917;50.942;6.946;2023-05-23T11:01:02;7.77;;;5.33;;
17596;SDS011;8917;50.942;6.946;2023-05-23T11:03:35;9.40;;;5.60;;
17596;SDS011;8917;50.942;6.946;2023-05-23T11:06:03;7.37;;;5.40;;
17596;SDS011;8917;50.942;6.946;2023-05-23T11:08:37;9.13;;;5.47;;
17596;SDS011;8917;50.942;6.946;2023-05-23T11:11:08;9.67;;;5.67;;
17596;SDS011;8917;50.942;6.946;2023-05-23T11:13:54;8.43;;;5.83;;
17596;SDS011;8917;50.942;6.946;2023-05-23T11:16:24;8.73;;;5.97;;
17596;SDS011;8917;50.942;6.946;2023-05-23T11:18:51;9.00;;;5.40;;
17596;SDS011;8917;50.942;6.946;2023-05-23T11:21:24;9.67;;;7.03;;
17596;SDS011;8917;50.942;6.946;2023-05-23T11:23:52;11.70;;;7.70;;
17596;SDS011;8917;50.942;6.946;2023-05-23T11:26:31;10.13;;;6.50;;
17596;SDS011;8917;50.942;6.946;2023-05-23T11:28:58;10.20;;;6.43;;
17596;SDS011;8917;50.942;6.946;2023-05-23T11:31:28;7.47;;;5.60;;
17596;SDS011;8917;50.942;6.946;2023-05-23T11:33:55;11.60;;;6.47;;
17596;SDS011;8917;50.942;6.946;2023-05-23T11:36:22;9.77;;;5.93;;
17596;SDS011;8917;50.942;6.946;2023-05-23T11:38:50;8.90;;;7.30;;
17596;SDS011;8917;50.942;6.946;2023-05-23T11:41:18;9.80;;;7.13;;
17596;SDS011;8917;50.942;6.946;2023-05-23T11:43:50;7.87;;;6.30;;
17596;SDS011;8917;50.942;6.946;2023-05-23T11:46:17;11.23;;;7.07;;
17596;SDS011;8917;50.942;6.946;2023-05-23T11:48:45;10.67;;;7.07;;
17596;SDS011;8917;50.942;6.946;2023-05-23T11:51:13;13.33;;;8.47;;
17596;SDS011;8917;50.942;6.946;2023-05-23T11:53:41;11.50;;;7.83;;
17596;SDS011;8917;50.942;6.946;2023-05-23T11:56:08;11.73;;;8.00;;
17596;SDS011;8917;50.942;6.946;2023-05-23T11:58:35;11.87;;;9.47;;
17596;SDS011;8917;50.942;6.946;2023-05-23T12:01:05;11.77;;;9.20;;
17596;SDS011;8917;50.942;6.946;2023-05-23T12:03:32;14.57;;;9.70;;
17596;SDS011;8917;50.942;6.946;2023-05-23T12:05:59;13.87;;;8.87;;
17596;SDS011;8917;50.942;6.946;2023-05-23T12:08:27;13.83;;;8.77;;
17596;SDS011;8917;50.942;6.946;2023-05-23T12:10:55;13.27;;;9.17;;
17596;SDS011;8917;50.942;6.946;2023-05-23T12:13:23;12.43;;;9.00;;
17596;SDS011;8917;50.942;6.946;2023-05-23T12:15:52;13.90;;;9.63;;
17596;SDS011;8917;50.942;6.946;2023-05-23T12:18:21;10.80;;;8.20;;
17596;SDS011;8917;50.942;6.946;2023-05-23T12:20:48;10.10;;;7.77;;
17596;SDS011;8917;50.942;6.946;2023-05-23T12:23:19;13.40;;;8.23;;
17596;SDS011;8917;50.942;6.946;2023-05-23T12:25:48;11.87;;;8.43;;
17596;SDS011;8917;50.942;6.946;2023-05-23T12:28:16;13.13;;;8.40;;
17596;SDS011;8917;50.942;6.946;2023-05-23T12:30:43;13.73;;;9.07;;
17596;SDS011;8917;50.942;6.946;2023-05-23T12:33:10;9.47;;;7.90;;
17596;SDS011;8917;50.942;6.946;2023-05-23T12:35:39;10.93;;;6.90;;
17596;SDS011;8917;50.942;6.946;2023-05-23T12:38:08;13.87;;;7.10;;
17596;SDS011;8917;50.942;6.946;2023-05-23T12:40:36;10.43;;;5.90;;
17596;SDS011;8917;50.942;6.946;2023-05-23T12:43:07;8.77;;;5.70;;
17596;SDS011;8917;50.942;6.946;2023-05-23T12:45:35;10.63;;;6.90;;
17596;SDS011;8917;50.942;6.946;2023-05-23T12:48:02;15.80;;;10.13;;
17596;SDS011;8917;50.942;6.946;2023-05-23T12:50:29;15.97;;;13.07;;
17596;SDS011;8917;50.942;6.946;2023-05-23T12:52:58;14.60;;;9.17;;
17596;SDS011;8917;50.942;6.946;2023-05-23T12:55:25;10.13;;;8.33;;
17596;SDS011;8917;50.942;6.946;2023-05-23T12:57:53;9.93;;;7.67;;
17596;SDS011;8917;50.942;6.946;2023-05-23T13:00:20;9.67;;;8.40;;
17596;SDS011;8917;50.942;6.946;2023-05-23T13:02:47;13.00;;;10.10;;
17596;SDS011;8917;50.942;6.946;2023-05-23T13:05:16;10.87;;;9.70;;
17596;SDS011;8917;50.942;6.946;2023-05-23T13:07:45;14.43;;;9.90;;
17596;SDS011;8917;50.942;6.946;2023-05-23T13:10:14;15.20;;;10.00;;
17596;SDS011;8917;50.942;6.946;2023-05-23T13:12:41;11.83;;;8.30;;
17596;SDS011;8917;50.942;6.946;2023-05-23T13:15:09;11.60;;;8.50;;
17596;SDS011;8917;50.942;6.946;2023-05-23T13:17:36;13.17;;;7.80;;
17596;SDS011;8917;50.942;6.946;2023-05-23T13:20:04;13.33;;;10.23;;
17596;SDS011;8917;50.942;6.946;2023-05-23T13:22:31;10.43;;;8.67;;
17596;SDS011;8917;50.942;6.946;2023-05-23T13:24:58;10.20;;;7.83;;
17596;SDS011;8917;50.942;6.946;2023-05-23T13:27:27;9.30;;;7.10;;
17596;SDS011;8917;50.942;6.946;2023-05-23T13:29:54;8.80;;;6.70;;
17596;SDS011;8917;50.942;6.946;2023-05-23T13:32:21;9.37;;;5.90;;
17596;SDS011;8917;50.942;6.946;2023-05-23T13:34:48;9.43;;;6.57;;
17596;SDS011;8917;50.942;6.946;2023-05-23T13:37:16;8.00;;;5.70;;
17596;SDS011;8917;50.942;6.946;2023-05-23T13:39:43;7.03;;;5.40;;
17596;SDS011;8917;50.942;6.946;2023-05-23T13:42:10;13.80;;;6.07;;
17596;SDS011;8917;50.942;6.946;2023-05-23T13:44:39;6.87;;;5.33;;
17596;SDS011;8917;50.942;6.946;2023-05-23T13:47:09;12.30;;;5.97;;
17596;SDS011;8917;50.942;6.946;2023-05-23T13:49:36;9.83;;;6.33;;
17596;SDS011;8917;50.942;6.946;2023-05-23T13:52:05;9.87;;;6.80;;
17596;SDS011;8917;50.942;6.946;2023-05-23T13:54:33;8.63;;;6.40;;
17596;SDS011;8917;50.942;6.946;2023-05-23T13:57:00;11.13;;;6.10;;
17596;SDS011;8917;50.942;6.946;2023-05-23T13:59:27;10.73;;;5.70;;
17596;SDS011;8917;50.942;6.946;2023-05-23T14:01:56;8.83;;;6.07;;
17596;SDS011;8917;50.942;6.946;2023-05-23T14:04:23;10.97;;;8.87;;
17596;SDS011;8917;50.942;6.946;2023-05-23T14:06:51;11.83;;;9.50;;
17596;SDS011;8917;50.942;6.946;2023-05-23T14:09:18;12.70;;;9.43;;
17596;SDS011;8917;50.942;6.946;2023-05-23T14:11:45;12.47;;;9.90;;
17596;SDS011;8917;50.942;6.946;2023-05-23T14:14:12;12.37;;;10.33;;
17596;SDS011;8917;50.942;6.946;2023-05-23T14:16:40;10.57;;;9.47;;
17596;SDS011;8917;50.942;6.946;2023-05-23T14:19:09;16.47;;;10.13;;
17596;SDS011;8917;50.942;6.946;2023-05-23T14:21:36;12.80;;;9.00;;
17596;SDS011;8917;50.942;6.946;2023-05-23T14:24:04;11.17;;;8.93;;
17596;SDS011;8917;50.942;6.946;2023-05-23T14:26:31;11.13;;;8.97;;
17596;SDS011;8917;50.942;6.946;2023-05-23T14:28:58;13.23;;;8.70;;
17596;SDS011;8917;50.942;6.946;2023-05-23T14:31:25;13.13;;;9.30;;
17596;SDS011;8917;50.942;6.946;2023-05-23T14:33:54;12.73;;;10.53;;
17596;SDS011;8917;50.942;6.946;2023-05-23T14:36:23;11.63;;;9.40;;
17596;SDS011;8917;50.942;6.946;2023-05-23T14:38:50;12.13;;;9.67;;
17596;SDS011;8917;50.942;6.946;2023-05-23T14:41:17;12.90;;;9.60;;
17596;SDS011;8917;50.942;6.946;2023-05-23T14:43:45;15.43;;;9.67;;
17596;SDS011;8917;50.942;6.946;2023-05-23T14:46:12;15.23;;;9.67;;
17596;SDS011;8917;50.942;6.946;2023-05-23T14:48:40;13.40;;;9.13;;
17596;SDS011;8917;50.942;6.946;2023-05-23T14:51:07;12.07;;;8.93;;
17596;SDS011;8917;50.942;6.946;2023-05-23T14:53:36;10.27;;;8.03;;
17596;SDS011;8917;50.942;6.946;2023-05-23T14:56:03;13.50;;;8.30;;
17596;SDS011;8917;50.942;6.946;2023-05-23T14:58:30;11.03;;;7.20;;
17596;SDS011;8917;50.942;6.946;2023-05-23T15:00:58;11.37;;;8.13;;